createdAt,value
2023-04-02T08:31:17.216Z,4.90
2023-04-02T08:36:20.120Z,4.85
2023-04-02T08:41:27.626Z,5.75
2023-04-02T08:46:41.320Z,4.50
2023-04-02T08:51:45.051Z,7.55
2023-04-02T08:56:55.566Z,4.95
2023-04-02T09:02:21.681Z,4.28
2023-04-02T09:07:23.904Z,4.30
2023-04-02T09:12:29.531Z,6.53
2023-04-02T09:17:42.798Z,7.32
2023-04-02T09:22:51.303Z,5.40
2023-04-02T09:27:55.656Z,5.50
2023-04-02T09:33:07.816Z,7.00
2023-04-02T09:38:09.847Z,9.32
2023-04-02T09:43:18.031Z,4.65
2023-04-02T09:48:33.864Z,7.43
2023-04-02T09:53:42.533Z,6.95
2023-04-02T09:58:46.104Z,6.60
2023-04-02T10:03:47.901Z,5.95
2023-04-02T10:08:49.681Z,7.18
2023-04-02T10:14:04.584Z,7.63
2023-04-02T10:19:25.160Z,7.88
2023-04-02T10:24:28.710Z,8.43
2023-04-02T10:29:33.397Z,9.32
2023-04-02T10:34:42.812Z,7.93
2023-04-02T10:39:53.451Z,6.90
2023-04-02T10:45:01.205Z,10.15
2023-04-02T10:50:15.154Z,10.48
2023-04-02T10:55:21.235Z,7.68
2023-04-02T11:00:31.057Z,7.97
2023-04-02T11:05:40.241Z,12.68
2023-04-02T11:10:46.868Z,7.78
2023-04-02T11:15:48.898Z,11.18
2023-04-02T11:20:51.095Z,7.13
2023-04-02T11:26:27.830Z,8.77
2023-04-02T11:31:29.641Z,5.60
2023-04-02T11:36:50.853Z,6.37
2023-04-02T11:42:05.034Z,6.88
2023-04-02T11:47:24.166Z,5.05
2023-04-02T11:52:34.042Z,5.88
2023-04-02T11:58:07.422Z,7.22
2023-04-02T12:03:25.626Z,4.57
2023-04-02T12:08:56.994Z,5.40
2023-04-02T12:14:00.150Z,4.40
2023-04-02T12:19:03.551Z,5.38
2023-04-02T12:24:06.346Z,1.30
2023-04-02T12:34:30.136Z,4.43
2023-04-02T12:39:34.548Z,8.65
2023-04-02T12:44:36.328Z,4.55
2023-04-02T12:49:41.339Z,5.25
2023-04-02T12:54:49.683Z,2.80
2023-04-02T12:59:52.605Z,2.72
2023-04-02T13:04:57.017Z,3.15
2023-04-02T13:10:00.868Z,2.78
2023-04-02T13:15:06.399Z,3.67
2023-04-02T13:20:27.899Z,3.00
2023-04-02T13:25:34.584Z,2.33
2023-04-02T13:30:37.094Z,3.20
2023-04-02T13:35:38.991Z,3.60
2023-04-02T13:40:41.233Z,2.72
2023-04-02T13:45:44.123Z,3.17
2023-04-02T13:55:49.205Z,3.60
2023-04-02T14:00:51.185Z,3.83
2023-04-02T14:05:58.996Z,2.60
2023-04-02T14:11:19.436Z,3.03
2023-04-02T14:16:44.044Z,2.95
2023-04-02T14:21:57.317Z,2.70
2023-04-02T14:27:32.789Z,3.97
2023-04-02T14:32:53.398Z,8.77
2023-04-02T14:38:23.923Z,3.72
2023-04-02T14:43:31.372Z,3.65
2023-04-02T14:48:48.769Z,3.28
2023-04-02T14:54:22.694Z,4.88
2023-04-02T14:59:32.578Z,3.63
2023-04-02T15:04:43.203Z,3.67
2023-04-02T15:09:52.063Z,3.95
2023-04-02T15:15:02.288Z,3.58
2023-04-02T15:20:16.443Z,3.20
2023-04-02T15:25:21.027Z,4.00
2023-04-02T15:30:29.451Z,6.22
2023-04-02T15:35:45.507Z,3.30
2023-04-02T15:41:15.341Z,5.40
2023-04-02T15:46:29.284Z,3.97
2023-04-02T15:51:37.097Z,4.88
2023-04-02T15:57:08.926Z,4.25
2023-04-02T16:02:32.738Z,3.90
2023-04-02T16:08:11.340Z,4.07
2023-04-02T16:13:35.829Z,4.85
2023-04-02T16:19:15.681Z,4.78
2023-04-02T16:24:18.585Z,5.50
2023-04-02T16:29:47.025Z,4.35
2023-04-02T16:35:41.835Z,5.03
2023-04-02T16:41:07.719Z,5.35
2023-04-02T16:46:40.547Z,4.93
2023-04-02T16:52:02.378Z,5.68
2023-04-02T16:57:23.188Z,6.15
2023-04-02T17:02:46.395Z,5.60
2023-04-02T17:13:19.592Z,4.55
2023-04-02T17:18:24.751Z,4.53
2023-04-02T17:23:28.239Z,5.00
2023-04-02T17:28:36.966Z,4.97
2023-04-02T17:33:39.023Z,5.10
2023-04-02T17:38:59.804Z,6.45
2023-04-02T17:44:07.708Z,5.10
2023-04-02T17:49:25.310Z,4.97
2023-04-02T17:54:46.732Z,5.53
2023-04-02T18:00:16.167Z,5.18
2023-04-02T18:05:30.808Z,5.28
2023-04-02T18:11:00.219Z,5.00
2023-04-02T18:16:20.388Z,5.35
2023-04-02T18:21:43.423Z,5.45
2023-04-02T18:27:09.533Z,5.97
2023-04-02T18:32:26.118Z,4.90
2023-04-02T18:37:30.812Z,5.68
2023-04-02T18:42:51.561Z,5.07
2023-04-02T18:48:12.252Z,5.88
2023-04-02T18:53:17.264Z,5.85
2023-04-02T18:58:52.824Z,5.32
2023-04-02T19:04:03.852Z,5.70
2023-04-02T19:09:34.194Z,5.78
2023-04-02T19:14:35.985Z,6.13
2023-04-02T19:19:42.861Z,6.55
2023-04-02T19:25:07.807Z,6.65
2023-04-02T19:30:26.617Z,6.57
2023-04-02T19:35:35.834Z,6.28
2023-04-02T19:41:03.931Z,6.95
2023-04-02T19:46:06.144Z,6.65
2023-04-02T19:51:07.813Z,8.38
2023-04-02T19:56:09.561Z,9.55
2023-04-02T20:01:11.401Z,6.03
2023-04-02T20:06:13.163Z,7.90
2023-04-02T20:11:15.568Z,7.55
2023-04-02T20:16:17.551Z,8.57
2023-04-02T20:21:19.933Z,9.48
2023-04-02T20:26:22.543Z,7.80
2023-04-02T20:31:24.645Z,7.60
2023-04-02T20:36:26.478Z,6.40
2023-04-02T20:41:28.229Z,7.22
2023-04-02T20:46:30.219Z,9.55
2023-04-02T20:51:32.645Z,8.23
2023-04-02T20:56:34.640Z,7.65
2023-04-02T21:01:37.596Z,8.35
2023-04-02T21:06:40.849Z,7.40
2023-04-02T21:11:43.607Z,8.73
2023-04-02T21:16:45.363Z,8.15
2023-04-02T21:21:47.058Z,8.00
2023-04-02T21:26:49.956Z,7.20
2023-04-02T21:31:52.392Z,9.60
2023-04-02T21:36:54.279Z,6.50
2023-04-02T21:41:56.386Z,8.50
2023-04-02T21:46:58.152Z,7.03
2023-04-02T21:51:59.957Z,7.53
2023-04-02T21:57:01.655Z,7.70
2023-04-02T22:02:04.724Z,7.65
2023-04-02T22:07:06.488Z,9.88
2023-04-02T22:12:08.367Z,7.18
2023-04-02T22:17:10.061Z,8.10
2023-04-02T22:22:11.785Z,7.90
2023-04-02T22:27:13.501Z,8.50
2023-04-02T22:32:15.368Z,8.23
2023-04-02T22:37:17.353Z,7.72
2023-04-02T22:42:19.033Z,5.97
2023-04-02T22:47:20.982Z,6.35
2023-04-02T22:52:22.928Z,6.13
2023-04-02T22:57:24.621Z,5.65
2023-04-02T23:02:27.507Z,5.40
2023-04-02T23:12:31.066Z,5.25
2023-04-02T23:17:32.829Z,6.07
2023-04-02T23:22:34.741Z,6.40
2023-04-02T23:27:36.864Z,4.87
2023-04-02T23:32:38.633Z,6.47
2023-04-02T23:37:41.991Z,5.65
2023-04-02T23:42:44.002Z,4.75
2023-04-02T23:47:45.701Z,5.22
2023-04-02T23:52:47.573Z,4.70
2023-04-02T23:57:49.218Z,5.15
